Time;durP1;ratioP1;P1;durP2;ratioP2;P2;SDS_P1;SDS_P2;PMS_P1;PMS_P2;Temp;Humidity;BMP_temperature;BMP_pressure;BME280_temperature;BME280_humidity;BME280_pressure;Samples;Min_cycle;Max_cycle;Signal;HPM_P1;HPM_P2
2021/12/28 00:01:36;;;;;;;;;;;20.60;35.50;;;;;;482516;246;1371;-46
2021/12/28 00:03:37;;;;;;;;;;;20.60;35.60;;;;;;482265;246;1190;-46
2021/12/28 00:05:39;;;;;;;;;;;20.50;35.70;;;;;;482435;246;1029;-46
2021/12/28 00:07:40;;;;;;;;;;;20.50;35.70;;;;;;482129;246;1502;-46
2021/12/28 00:09:41;;;;;;;;;;;20.50;35.70;;;;;;482716;246;1027;-46
2021/12/28 00:11:42;;;;;;;;;;;20.50;35.60;;;;;;482152;246;1262;-46
2021/12/28 00:13:44;;;;;;;;;;;20.50;35.60;;;;;;482299;246;1215;-46
2021/12/28 00:16:00;;;;;;;;;;;20.50;35.70;;;;;;482683;246;2397;-46
2021/12/28 00:17:59;;;;;;;;;;;20.50;35.60;;;;;;481610;247;1839;-46
2021/12/28 00:20:00;;;;;;;;;;;20.50;35.70;;;;;;482308;246;1104;-46
2021/12/28 00:22:02;;;;;;;;;;;20.50;35.70;;;;;;482567;246;1624;-46
2021/12/28 00:24:04;;;;;;;;;;;20.40;35.70;;;;;;482529;246;1072;-46
2021/12/28 00:26:04;;;;;;;;;;;20.50;35.70;;;;;;482283;246;2241;-47
2021/12/28 00:28:06;;;;;;;;;;;20.40;35.70;;;;;;482489;246;1210;-46
2021/12/28 00:30:07;;;;;;;;;;;20.50;35.70;;;;;;482694;246;1189;-46
2021/12/28 00:32:08;;;;;;;;;;;20.40;35.70;;;;;;482177;246;1168;-46
2021/12/28 00:34:10;;;;;;;;;;;20.40;35.80;;;;;;482272;246;1174;-46
2021/12/28 00:36:11;;;;;;;;;;;20.40;35.80;;;;;;482246;246;2117;-46
2021/12/28 00:38:14;;;;;;;;;;;20.40;35.80;;;;;;482204;246;1235;-46
2021/12/28 00:40:14;;;;;;;;;;;20.40;35.70;;;;;;482614;247;2434;-46
2021/12/28 00:42:15;;;;;;;;;;;20.30;35.80;;;;;;482405;246;1516;-46
2021/12/28 00:44:17;;;;;;;;;;;20.30;35.80;;;;;;482457;246;1079;-46
2021/12/28 00:46:18;;;;;;;;;;;20.40;35.80;;;;;;482371;246;1196;-46
2021/12/28 00:48:19;;;;;;;;;;;20.40;35.80;;;;;;482264;246;1261;-46
2021/12/28 00:50:21;;;;;;;;;;;20.40;35.80;;;;;;482264;246;1364;-47
2021/12/28 00:52:22;;;;;;;;;;;20.40;35.90;;;;;;482155;246;1299;-46
2021/12/28 00:54:23;;;;;;;;;;;20.40;35.90;;;;;;482408;246;1026;-46
2021/12/28 00:56:24;;;;;;;;;;;20.40;35.80;;;;;;482223;246;2126;-46
2021/12/28 00:58:26;;;;;;;;;;;20.40;35.90;;;;;;482273;246;1228;-46
2021/12/28 01:00:27;;;;;;;;;;;20.30;35.90;;;;;;482515;246;1075;-46
2021/12/28 01:02:28;;;;;;;;;;;20.30;35.90;;;;;;482332;246;1150;-46
2021/12/28 01:04:31;;;;;;;;;;;20.40;35.80;;;;;;482299;246;1072;-46
2021/12/28 01:06:31;;;;;;;;;;;20.30;35.90;;;;;;482486;246;2439;-47
2021/12/28 01:08:32;;;;;;;;;;;20.40;35.90;;;;;;482670;246;1201;-46
2021/12/28 01:10:34;;;;;;;;;;;20.30;35.80;;;;;;482664;246;1126;-46
2021/12/28 01:12:35;;;;;;;;;;;20.30;35.90;;;;;;482456;246;1242;-46
2021/12/28 01:14:37;;;;;;;;;;;20.30;35.90;;;;;;482683;246;1056;-46
2021/12/28 01:16:38;;;;;;;;;;;20.30;36.00;;;;;;482286;246;2129;-46
2021/12/28 01:18:39;;;;;;;;;;;20.30;35.90;;;;;;482591;246;1100;-46
2021/12/28 01:20:40;;;;;;;;;;;20.30;35.90;;;;;;482237;246;1083;-46
2021/12/28 01:22:42;;;;;;;;;;;20.30;35.90;;;;;;482094;246;1267;-46
2021/12/28 01:24:43;;;;;;;;;;;20.30;35.90;;;;;;482248;246;1051;-46
2021/12/28 01:26:44;;;;;;;;;;;20.20;35.90;;;;;;482325;246;1523;-46
2021/12/28 01:28:46;;;;;;;;;;;20.30;35.90;;;;;;482231;246;1184;-46
2021/12/28 01:30:47;;;;;;;;;;;20.30;36.00;;;;;;482552;246;1378;-46
2021/12/28 01:32:48;;;;;;;;;;;20.30;36.00;;;;;;482164;246;1172;-47
2021/12/28 01:34:50;;;;;;;;;;;20.30;35.90;;;;;;482715;246;1089;-46
2021/12/28 01:36:51;;;;;;;;;;;20.30;35.90;;;;;;482224;246;2118;-46
2021/12/28 01:38:52;;;;;;;;;;;20.30;36.00;;;;;;482268;246;1063;-46
2021/12/28 01:40:53;;;;;;;;;;;20.30;35.90;;;;;;482304;246;1076;-46
2021/12/28 01:42:55;;;;;;;;;;;20.30;35.90;;;;;;482448;246;1162;-47
2021/12/28 01:44:56;;;;;;;;;;;20.30;36.00;;;;;;482652;246;1156;-47
2021/12/28 01:46:58;;;;;;;;;;;20.30;35.90;;;;;;482191;246;1692;-46
2021/12/28 01:48:59;;;;;;;;;;;20.30;35.90;;;;;;482377;246;985;-46
2021/12/28 01:51:00;;;;;;;;;;;20.20;36.00;;;;;;482246;246;1355;-46
2021/12/28 01:53:02;;;;;;;;;;;20.20;36.00;;;;;;482362;246;1112;-46
2021/12/28 01:55:04;;;;;;;;;;;20.20;35.90;;;;;;482279;246;1104;-46
2021/12/28 01:57:04;;;;;;;;;;;20.30;36.00;;;;;;482159;246;2134;-46
2021/12/28 01:59:06;;;;;;;;;;;20.20;35.90;;;;;;482479;246;1199;-46
2021/12/28 02:01:07;;;;;;;;;;;20.20;36.00;;;;;;482297;246;1264;-47
2021/12/28 02:03:08;;;;;;;;;;;20.20;36.00;;;;;;482266;246;1364;-46
2021/12/28 02:05:10;;;;;;;;;;;20.30;35.90;;;;;;482283;246;997;-46
2021/12/28 02:07:11;;;;;;;;;;;20.20;35.90;;;;;;482164;246;1268;-46
2021/12/28 02:09:12;;;;;;;;;;;20.20;36.00;;;;;;482703;246;1256;-46
2021/12/28 02:11:13;;;;;;;;;;;20.20;35.90;;;;;;482425;246;1275;-47
2021/12/28 02:13:15;;;;;;;;;;;20.30;36.00;;;;;;482220;246;1240;-46
2021/12/28 02:15:16;;;;;;;;;;;20.20;36.00;;;;;;482500;246;1004;-46
2021/12/28 02:17:17;;;;;;;;;;;20.20;35.90;;;;;;482283;247;2122;-46
2021/12/28 02:19:19;;;;;;;;;;;20.20;35.90;;;;;;482699;246;1103;-46
2021/12/28 02:21:20;;;;;;;;;;;20.20;35.90;;;;;;482438;246;1163;-46
2021/12/28 02:23:23;;;;;;;;;;;20.20;36.00;;;;;;482283;246;1081;-45
2021/12/28 02:25:23;;;;;;;;;;;20.20;36.00;;;;;;482201;246;2520;-46
2021/12/28 02:27:25;;;;;;;;;;;20.20;36.00;;;;;;482398;246;1141;-46
2021/12/28 02:29:26;;;;;;;;;;;20.20;36.10;;;;;;482256;246;1280;-46
2021/12/28 02:31:27;;;;;;;;;;;20.20;36.00;;;;;;482430;246;1126;-46
2021/12/28 02:33:29;;;;;;;;;;;20.20;36.10;;;;;;482294;246;1221;-46
2021/12/28 02:35:30;;;;;;;;;;;20.20;36.10;;;;;;482380;246;1021;-46
2021/12/28 02:37:31;;;;;;;;;;;20.20;36.10;;;;;;482252;246;2196;-46
2021/12/28 02:39:32;;;;;;;;;;;20.20;36.10;;;;;;482320;246;1100;-46
2021/12/28 02:41:34;;;;;;;;;;;20.20;35.90;;;;;;482224;246;1316;-47
2021/12/28 02:43:35;;;;;;;;;;;20.40;35.70;;;;;;482337;246;1335;-46
2021/12/28 02:45:36;;;;;;;;;;;20.60;35.20;;;;;;482605;246;1158;-47
2021/12/28 02:47:38;;;;;;;;;;;20.80;34.90;;;;;;482298;246;1174;-47
2021/12/28 02:49:39;;;;;;;;;;;20.90;34.70;;;;;;482602;246;1054;-47
2021/12/28 02:51:40;;;;;;;;;;;21.00;34.50;;;;;;482405;246;2445;-46
2021/12/28 02:53:42;;;;;;;;;;;21.10;34.30;;;;;;482328;246;1170;-47
2021/12/28 02:55:43;;;;;;;;;;;21.20;34.20;;;;;;482378;246;1266;-47
2021/12/28 02:57:44;;;;;;;;;;;21.30;34.10;;;;;;482074;246;2180;-47
2021/12/28 02:59:46;;;;;;;;;;;21.30;34.00;;;;;;482365;246;1152;-46
2021/12/28 03:01:47;;;;;;;;;;;21.30;33.90;;;;;;482100;246;1343;-47
2021/12/28 03:03:48;;;;;;;;;;;21.40;33.90;;;;;;482629;246;1069;-46
2021/12/28 03:05:50;;;;;;;;;;;21.40;33.80;;;;;;482674;246;1294;-46
2021/12/28 03:07:51;;;;;;;;;;;21.50;33.80;;;;;;482225;246;1350;-47
2021/12/28 03:09:52;;;;;;;;;;;21.50;33.70;;;;;;482514;246;1040;-47
2021/12/28 03:11:54;;;;;;;;;;;21.60;33.60;;;;;;482535;246;1378;-47
2021/12/28 03:13:55;;;;;;;;;;;21.60;33.50;;;;;;482469;246;1327;-46
2021/12/28 03:15:56;;;;;;;;;;;21.60;33.50;;;;;;482203;246;1311;-47
2021/12/28 03:17:57;;;;;;;;;;;21.70;33.50;;;;;;482266;246;2193;-47
2021/12/28 03:19:59;;;;;;;;;;;21.70;33.50;;;;;;482403;246;1118;-46
2021/12/28 03:22:00;;;;;;;;;;;21.70;33.40;;;;;;482267;246;1313;-46
2021/12/28 03:24:01;;;;;;;;;;;21.70;33.30;;;;;;482286;246;1095;-47
2021/12/28 03:26:03;;;;;;;;;;;21.80;33.30;;;;;;482255;246;1234;-47
2021/12/28 03:28:04;;;;;;;;;;;21.80;33.30;;;;;;482626;246;1533;-47
2021/12/28 03:30:06;;;;;;;;;;;21.80;33.20;;;;;;482466;246;1192;-47
2021/12/28 03:32:07;;;;;;;;;;;21.90;33.20;;;;;;482172;246;1282;-46
2021/12/28 03:34:08;;;;;;;;;;;21.90;33.20;;;;;;482727;246;1027;-46
2021/12/28 03:36:10;;;;;;;;;;;21.90;33.20;;;;;;482361;246;1173;-47
2021/12/28 03:38:11;;;;;;;;;;;21.90;33.20;;;;;;482240;246;2113;-46
2021/12/28 03:40:12;;;;;;;;;;;21.90;33.10;;;;;;482698;246;1099;-47
2021/12/28 03:42:14;;;;;;;;;;;21.90;33.10;;;;;;482405;246;1208;-46
2021/12/28 03:44:15;;;;;;;;;;;21.90;33.00;;;;;;482240;246;1232;-47
2021/12/28 03:46:16;;;;;;;;;;;21.90;33.00;;;;;;482540;246;1323;-46
2021/12/28 03:48:18;;;;;;;;;;;22.00;33.10;;;;;;482287;246;1289;-46
2021/12/28 03:50:19;;;;;;;;;;;22.00;33.10;;;;;;482297;246;1044;-47
2021/12/28 03:52:20;;;;;;;;;;;22.00;33.00;;;;;;482206;246;1189;-47
2021/12/28 03:54:22;;;;;;;;;;;22.00;33.00;;;;;;482589;246;1210;-47
2021/12/28 03:56:23;;;;;;;;;;;22.10;33.00;;;;;;482549;246;1173;-46
2021/12/28 03:58:24;;;;;;;;;;;22.00;32.90;;;;;;482472;246;2114;-47
2021/12/28 04:00:26;;;;;;;;;;;22.00;32.90;;;;;;482402;246;1170;-47
2021/12/28 04:02:27;;;;;;;;;;;22.10;33.00;;;;;;482345;246;1476;-47
2021/12/28 04:04:28;;;;;;;;;;;22.10;32.90;;;;;;482730;246;1160;-47
2021/12/28 04:06:31;;;;;;;;;;;22.10;32.90;;;;;;482208;243;1301;-47
2021/12/28 04:08:31;;;;;;;;;;;22.10;32.90;;;;;;482256;246;2620;-47
2021/12/28 04:10:48;;;;;;;;;;;22.10;32.80;;;;;;482283;246;1080;-47
2021/12/28 04:12:34;;;;;;;;;;;22.10;32.80;;;;;;481209;247;2013;-46
2021/12/28 04:14:35;;;;;;;;;;;22.10;32.80;;;;;;482526;246;1201;-47
2021/12/28 04:16:36;;;;;;;;;;;22.20;32.90;;;;;;482229;246;1168;-47
2021/12/28 04:18:38;;;;;;;;;;;22.20;32.80;;;;;;482214;246;2185;-47
2021/12/28 04:20:39;;;;;;;;;;;22.20;32.90;;;;;;482228;246;1246;-47
2021/12/28 04:22:40;;;;;;;;;;;22.20;32.80;;;;;;482280;246;1190;-47
2021/12/28 04:24:41;;;;;;;;;;;22.20;32.80;;;;;;482280;246;1119;-47
2021/12/28 04:26:43;;;;;;;;;;;22.20;32.80;;;;;;482187;246;1189;-47
2021/12/28 04:28:44;;;;;;;;;;;22.20;32.80;;;;;;482404;246;1069;-47
2021/12/28 04:30:45;;;;;;;;;;;22.20;32.80;;;;;;482305;246;1376;-47
2021/12/28 04:32:47;;;;;;;;;;;22.20;32.80;;;;;;482527;246;1283;-47
2021/12/28 04:34:48;;;;;;;;;;;22.20;32.70;;;;;;482291;246;1035;-47
2021/12/28 04:36:50;;;;;;;;;;;22.20;32.70;;;;;;482571;246;1399;-46
2021/12/28 04:38:51;;;;;;;;;;;22.20;32.70;;;;;;482674;246;2169;-47
2021/12/28 04:40:52;;;;;;;;;;;22.20;32.70;;;;;;482374;246;1224;-46
2021/12/28 04:42:54;;;;;;;;;;;22.20;32.70;;;;;;482258;246;1197;-47
2021/12/28 04:44:55;;;;;;;;;;;22.30;32.70;;;;;;482595;246;1125;-47
2021/12/28 04:46:56;;;;;;;;;;;22.30;32.70;;;;;;482335;246;1190;-46
2021/12/28 04:48:58;;;;;;;;;;;22.30;32.70;;;;;;482720;246;1047;-47
2021/12/28 04:50:59;;;;;;;;;;;22.30;32.70;;;;;;482682;246;1211;-47
2021/12/28 04:53:03;;;;;;;;;;;22.30;32.70;;;;;;482650;246;1294;-47
2021/12/28 04:55:01;;;;;;;;;;;22.30;32.70;;;;;;482137;246;1888;-46
2021/12/28 04:57:03;;;;;;;;;;;22.30;32.60;;;;;;482265;246;1197;-46
2021/12/28 04:59:04;;;;;;;;;;;22.30;32.60;;;;;;482259;246;2125;-47
2021/12/28 05:01:05;;;;;;;;;;;22.40;32.60;;;;;;482315;246;1338;-46
2021/12/28 05:03:07;;;;;;;;;;;22.30;32.60;;;;;;482637;246;1178;-47
2021/12/28 05:05:09;;;;;;;;;;;22.40;32.70;;;;;;482324;246;1067;-47
2021/12/28 05:07:09;;;;;;;;;;;22.40;32.70;;;;;;482127;247;1681;-47
2021/12/28 05:09:11;;;;;;;;;;;22.40;32.70;;;;;;482613;246;1204;-47
2021/12/28 05:11:14;;;;;;;;;;;22.40;32.60;;;;;;482640;246;1168;-47
2021/12/28 05:13:13;;;;;;;;;;;22.40;32.60;;;;;;482132;247;2056;-47
2021/12/28 05:15:15;;;;;;;;;;;22.40;32.60;;;;;;482459;246;1237;-47
2021/12/28 05:17:16;;;;;;;;;;;22.40;32.60;;;;;;482551;246;1189;-47
2021/12/28 05:19:17;;;;;;;;;;;22.40;32.60;;;;;;482360;246;2146;-46
2021/12/28 05:21:18;;;;;;;;;;;22.40;32.60;;;;;;482104;246;1208;-46
2021/12/28 05:23:20;;;;;;;;;;;22.40;32.60;;;;;;482165;247;1388;-46
2021/12/28 05:25:21;;;;;;;;;;;22.40;32.60;;;;;;482496;246;1052;-47
2021/12/28 05:27:23;;;;;;;;;;;22.40;32.60;;;;;;482172;246;1160;-46
2021/12/28 05:29:24;;;;;;;;;;;22.50;32.60;;;;;;482666;246;1251;-47
2021/12/28 05:31:26;;;;;;;;;;;22.40;32.60;;;;;;482289;246;1260;-47
2021/12/28 05:33:27;;;;;;;;;;;22.40;32.50;;;;;;482603;246;1140;-46
2021/12/28 05:35:28;;;;;;;;;;;22.50;32.50;;;;;;482362;246;1102;-47
2021/12/28 05:37:30;;;;;;;;;;;22.40;32.50;;;;;;482111;246;1580;-47
2021/12/28 05:39:31;;;;;;;;;;;22.40;32.50;;;;;;482330;246;2129;-47
2021/12/28 05:41:32;;;;;;;;;;;22.50;32.50;;;;;;482618;246;1351;-47
2021/12/28 05:43:34;;;;;;;;;;;22.50;32.50;;;;;;482716;246;1341;-47
2021/12/28 05:45:35;;;;;;;;;;;22.50;32.50;;;;;;482528;246;1280;-47
2021/12/28 05:47:36;;;;;;;;;;;22.50;32.50;;;;;;482278;246;1230;-46
2021/12/28 05:49:39;;;;;;;;;;;22.50;32.50;;;;;;482253;246;1146;-46
2021/12/28 05:51:39;;;;;;;;;;;22.50;32.50;;;;;;482206;246;2201;-47
2021/12/28 05:53:40;;;;;;;;;;;22.50;32.50;;;;;;482580;246;1221;-47
2021/12/28 05:55:43;;;;;;;;;;;22.50;32.40;;;;;;482331;246;1094;-47
2021/12/28 05:57:43;;;;;;;;;;;22.50;32.50;;;;;;482018;247;2488;-47
2021/12/28 05:59:44;;;;;;;;;;;22.60;32.50;;;;;;482227;246;1179;-46
2021/12/28 06:01:46;;;;;;;;;;;22.50;32.50;;;;;;482201;246;1240;-47
2021/12/28 06:03:47;;;;;;;;;;;22.50;32.50;;;;;;482607;246;1200;-46
2021/12/28 06:05:48;;;;;;;;;;;22.50;32.50;;;;;;482637;246;1219;-47
2021/12/28 06:07:49;;;;;;;;;;;22.60;32.50;;;;;;482586;246;1330;-47
2021/12/28 06:09:51;;;;;;;;;;;22.60;32.50;;;;;;482245;246;1284;-46
2021/12/28 06:11:52;;;;;;;;;;;22.60;32.50;;;;;;482138;246;1520;-47
2021/12/28 06:13:53;;;;;;;;;;;22.60;32.60;;;;;;482257;246;1225;-47
2021/12/28 06:15:55;;;;;;;;;;;22.60;32.50;;;;;;482083;246;1203;-46
2021/12/28 06:17:56;;;;;;;;;;;22.60;32.50;;;;;;482253;246;2189;-46
2021/12/28 06:19:57;;;;;;;;;;;22.60;32.50;;;;;;482194;246;1150;-47
2021/12/28 06:21:59;;;;;;;;;;;22.60;32.40;;;;;;482376;246;1226;-47
2021/12/28 06:24:00;;;;;;;;;;;22.60;32.40;;;;;;482585;246;1367;-47
2021/12/28 06:26:01;;;;;;;;;;;22.60;32.50;;;;;;482626;246;1214;-47
2021/12/28 06:28:04;;;;;;;;;;;22.60;32.40;;;;;;482253;246;1229;-47
2021/12/28 06:30:04;;;;;;;;;;;22.60;32.40;;;;;;482226;247;2105;-46
2021/12/28 06:32:05;;;;;;;;;;;22.60;32.40;;;;;;482219;246;1226;-47
2021/12/28 06:34:07;;;;;;;;;;;22.60;32.40;;;;;;482495;246;1283;-46
2021/12/28 06:36:08;;;;;;;;;;;22.60;32.40;;;;;;482088;246;1442;-46
2021/12/28 06:38:09;;;;;;;;;;;22.60;32.40;;;;;;482343;246;2196;-46
2021/12/28 06:40:11;;;;;;;;;;;22.60;32.40;;;;;;482196;246;1194;-46
2021/12/28 06:42:13;;;;;;;;;;;22.50;32.50;;;;;;482431;246;1283;-47
2021/12/28 06:44:14;;;;;;;;;;;22.50;32.60;;;;;;482228;246;1036;-47
2021/12/28 06:46:15;;;;;;;;;;;22.40;32.70;;;;;;482141;246;1313;-46
2021/12/28 06:48:16;;;;;;;;;;;22.20;33.10;;;;;;482578;246;1038;-46
2021/12/28 06:50:18;;;;;;;;;;;22.00;33.40;;;;;;482455;246;1229;-46
2021/12/28 06:52:19;;;;;;;;;;;21.70;33.80;;;;;;482126;246;1274;-46
2021/12/28 06:54:20;;;;;;;;;;;21.60;34.00;;;;;;482438;246;1108;-46
2021/12/28 06:56:22;;;;;;;;;;;21.50;34.20;;;;;;482396;246;1286;-46
2021/12/28 06:58:23;;;;;;;;;;;21.50;34.30;;;;;;482511;246;2114;-46
2021/12/28 07:00:24;;;;;;;;;;;21.40;34.40;;;;;;482104;246;1151;-46
2021/12/28 07:02:26;;;;;;;;;;;21.40;34.50;;;;;;481991;246;1217;-46
2021/12/28 07:04:27;;;;;;;;;;;21.30;34.60;;;;;;482090;246;1055;-47
2021/12/28 07:06:29;;;;;;;;;;;21.30;34.70;;;;;;482070;246;1280;-46
2021/12/28 07:08:30;;;;;;;;;;;21.20;34.70;;;;;;482212;246;1172;-46
2021/12/28 07:10:31;;;;;;;;;;;21.20;34.80;;;;;;482080;246;1113;-47
2021/12/28 07:12:33;;;;;;;;;;;21.20;34.90;;;;;;482116;246;1184;-46
2021/12/28 07:14:34;;;;;;;;;;;21.20;34.90;;;;;;482261;246;1052;-46
2021/12/28 07:16:35;;;;;;;;;;;21.10;34.90;;;;;;482104;246;1320;-46
2021/12/28 07:18:37;;;;;;;;;;;21.20;34.90;;;;;;482127;246;2145;-46
2021/12/28 07:20:38;;;;;;;;;;;21.10;34.90;;;;;;482159;246;1094;-46
2021/12/28 07:22:39;;;;;;;;;;;21.10;35.00;;;;;;482093;246;1312;-45
2021/12/28 07:24:41;;;;;;;;;;;21.10;35.00;;;;;;482419;246;1273;-46
2021/12/28 07:26:42;;;;;;;;;;;21.00;35.00;;;;;;482193;246;1185;-46
2021/12/28 07:28:43;;;;;;;;;;;21.00;35.10;;;;;;482294;246;1180;-46
2021/12/28 07:30:44;;;;;;;;;;;21.10;35.10;;;;;;482111;246;1312;-46
2021/12/28 07:32:46;;;;;;;;;;;21.00;35.10;;;;;;482101;246;1216;-46
2021/12/28 07:34:47;;;;;;;;;;;21.00;35.10;;;;;;482358;246;1142;-46
2021/12/28 07:36:48;;;;;;;;;;;21.00;35.20;;;;;;481957;246;1564;-46
2021/12/28 07:38:50;;;;;;;;;;;20.90;35.20;;;;;;482268;246;2196;-46
2021/12/28 07:40:51;;;;;;;;;;;20.90;35.30;;;;;;482291;246;1286;-46
2021/12/28 07:42:53;;;;;;;;;;;20.90;35.20;;;;;;482211;246;1159;-46
2021/12/28 07:44:54;;;;;;;;;;;20.90;35.20;;;;;;482195;247;2240;-46
2021/12/28 07:46:55;;;;;;;;;;;20.90;35.30;;;;;;482018;246;1451;-46
2021/12/28 07:48:56;;;;;;;;;;;20.80;35.30;;;;;;482578;246;1106;-46
2021/12/28 07:50:58;;;;;;;;;;;20.80;35.40;;;;;;482433;246;1390;-46
2021/12/28 07:52:59;;;;;;;;;;;20.80;35.40;;;;;;482239;246;1233;-46
2021/12/28 07:55:00;;;;;;;;;;;20.80;35.30;;;;;;482156;246;1066;-46
2021/12/28 07:57:02;;;;;;;;;;;20.80;35.40;;;;;;482088;246;1167;-46
2021/12/28 07:59:03;;;;;;;;;;;20.80;35.50;;;;;;482291;246;2334;-46
2021/12/28 08:01:04;;;;;;;;;;;20.70;35.50;;;;;;482449;246;1336;-46
2021/12/28 08:03:06;;;;;;;;;;;20.70;35.40;;;;;;482212;246;1241;-46
2021/12/28 08:05:07;;;;;;;;;;;20.70;35.50;;;;;;482414;246;1086;-47
2021/12/28 08:07:08;;;;;;;;;;;20.70;35.40;;;;;;482045;246;1317;-46
2021/12/28 08:09:10;;;;;;;;;;;20.80;35.40;;;;;;482138;246;1040;-46
2021/12/28 08:11:11;;;;;;;;;;;20.70;35.40;;;;;;482004;246;1339;-46
2021/12/28 08:13:12;;;;;;;;;;;20.80;35.50;;;;;;482033;246;1090;-46
2021/12/28 08:15:14;;;;;;;;;;;20.70;35.40;;;;;;482055;246;1238;-46
2021/12/28 08:17:15;;;;;;;;;;;20.70;35.50;;;;;;481938;246;1254;-47
2021/12/28 08:19:16;;;;;;;;;;;20.60;35.50;;;;;;482049;246;2188;-46
2021/12/28 08:21:18;;;;;;;;;;;20.70;35.60;;;;;;482066;246;1246;-46
2021/12/28 08:23:19;;;;;;;;;;;20.70;35.50;;;;;;482122;246;1272;-46
2021/12/28 08:25:20;;;;;;;;;;;20.70;35.50;;;;;;482385;246;1053;-46
2021/12/28 08:27:22;;;;;;;;;;;20.60;35.50;;;;;;481890;246;1308;-47
2021/12/28 08:29:25;;;;;;;;;;;20.70;35.60;;;;;;482223;246;1008;-46
2021/12/28 08:31:25;;;;;;;;;;;20.60;35.50;;;;;;482006;247;2269;-46
2021/12/28 08:33:28;;;;;;;;;;;20.60;35.50;;;;;;482228;246;1222;-46
2021/12/28 08:35:28;;;;;;;;;;;20.60;35.60;;;;;;482039;246;2203;-46
2021/12/28 08:37:29;;;;;;;;;;;20.60;35.60;;;;;;482003;246;1508;-46
2021/12/28 08:39:30;;;;;;;;;;;20.60;35.60;;;;;;482317;246;2201;-46
2021/12/28 08:41:32;;;;;;;;;;;20.60;35.60;;;;;;481912;246;1527;-47
2021/12/28 08:43:33;;;;;;;;;;;20.60;35.60;;;;;;482073;246;1131;-46
2021/12/28 08:45:34;;;;;;;;;;;20.60;35.60;;;;;;482404;246;1332;-46
2021/12/28 08:47:36;;;;;;;;;;;20.60;35.60;;;;;;482077;246;1388;-46
2021/12/28 08:49:37;;;;;;;;;;;20.60;35.60;;;;;;482450;246;1195;-47
2021/12/28 08:51:38;;;;;;;;;;;20.50;35.60;;;;;;482026;246;1278;-46
2021/12/28 08:53:40;;;;;;;;;;;20.60;35.70;;;;;;482444;246;1096;-46
2021/12/28 08:55:41;;;;;;;;;;;20.50;35.60;;;;;;482004;246;1344;-46
2021/12/28 08:57:42;;;;;;;;;;;20.60;35.60;;;;;;481947;246;1230;-46
2021/12/28 08:59:44;;;;;;;;;;;20.60;35.60;;;;;;482505;246;2197;-46
2021/12/28 09:01:45;;;;;;;;;;;20.60;35.60;;;;;;482265;246;1136;-46
2021/12/28 09:03:46;;;;;;;;;;;20.50;35.60;;;;;;482147;246;1218;-46
2021/12/28 09:05:48;;;;;;;;;;;20.60;35.70;;;;;;482201;246;1098;-47
2021/12/28 09:07:49;;;;;;;;;;;20.60;35.60;;;;;;482376;246;1190;-46
2021/12/28 09:09:50;;;;;;;;;;;20.60;35.60;;;;;;482189;246;1071;-46
2021/12/28 09:11:52;;;;;;;;;;;20.60;35.60;;;;;;482012;246;1320;-45
2021/12/28 09:13:53;;;;;;;;;;;20.60;35.60;;;;;;482273;246;1067;-46
2021/12/28 09:15:54;;;;;;;;;;;20.60;35.60;;;;;;482169;246;1243;-46
2021/12/28 09:17:56;;;;;;;;;;;20.60;35.60;;;;;;481963;246;1208;-46
2021/12/28 09:19:57;;;;;;;;;;;20.60;35.60;;;;;;482034;246;2133;-46
2021/12/28 09:21:58;;;;;;;;;;;20.50;35.60;;;;;;482000;246;1203;-46
2021/12/28 09:24:00;;;;;;;;;;;20.50;35.60;;;;;;482224;246;1245;-46
2021/12/28 09:26:01;;;;;;;;;;;20.50;35.60;;;;;;482023;246;1184;-46
2021/12/28 09:28:02;;;;;;;;;;;20.50;35.70;;;;;;482461;246;1040;-46
2021/12/28 09:30:04;;;;;;;;;;;20.50;35.60;;;;;;482179;246;1058;-46
2021/12/28 09:32:05;;;;;;;;;;;20.50;35.60;;;;;;481957;246;1341;-46
2021/12/28 09:34:06;;;;;;;;;;;20.50;35.60;;;;;;482114;246;1243;-46
2021/12/28 09:36:09;;;;;;;;;;;20.50;35.60;;;;;;481999;246;1322;-46
2021/12/28 09:38:09;;;;;;;;;;;20.50;35.60;;;;;;481963;247;2294;-46
2021/12/28 09:40:10;;;;;;;;;;;20.50;35.60;;;;;;482057;246;2126;-46
2021/12/28 09:42:11;;;;;;;;;;;20.50;35.60;;;;;;481922;246;1235;-46
2021/12/28 09:44:13;;;;;;;;;;;20.50;35.70;;;;;;482089;246;1028;-46
2021/12/28 09:46:14;;;;;;;;;;;20.50;35.70;;;;;;482247;246;1351;-46
2021/12/28 09:48:16;;;;;;;;;;;20.50;35.70;;;;;;482066;246;1148;-46
2021/12/28 09:50:17;;;;;;;;;;;20.50;35.70;;;;;;482160;246;1087;-46
2021/12/28 09:52:18;;;;;;;;;;;20.50;35.70;;;;;;482078;246;1220;-46
2021/12/28 09:54:20;;;;;;;;;;;20.50;35.60;;;;;;481995;246;1100;-46
2021/12/28 09:56:21;;;;;;;;;;;20.50;35.70;;;;;;482112;246;1240;-46
2021/12/28 09:58:22;;;;;;;;;;;20.50;35.70;;;;;;482012;246;1071;-46
2021/12/28 10:00:24;;;;;;;;;;;20.50;35.70;;;;;;482085;246;2188;-46
2021/12/28 10:02:25;;;;;;;;;;;20.40;35.60;;;;;;481987;246;1187;-46
2021/12/28 10:04:26;;;;;;;;;;;20.50;35.70;;;;;;482029;246;1180;-46
2021/12/28 10:06:27;;;;;;;;;;;20.40;35.70;;;;;;481942;244;1454;-46
2021/12/28 10:08:29;;;;;;;;;;;20.40;35.70;;;;;;482170;246;1114;-46
2021/12/28 10:10:30;;;;;;;;;;;20.40;35.60;;;;;;482013;246;1400;-47
2021/12/28 10:12:31;;;;;;;;;;;20.50;35.70;;;;;;482047;246;1253;-46
2021/12/28 10:14:33;;;;;;;;;;;20.40;35.70;;;;;;482155;246;1094;-46
2021/12/28 10:16:34;;;;;;;;;;;20.40;35.70;;;;;;482172;246;1227;-46
2021/12/28 10:18:35;;;;;;;;;;;20.40;35.70;;;;;;481909;246;1219;-46
2021/12/28 10:20:37;;;;;;;;;;;20.30;35.70;;;;;;482085;246;2189;-46
2021/12/28 10:22:38;;;;;;;;;;;20.40;35.70;;;;;;481893;246;1156;-47
2021/12/28 10:24:39;;;;;;;;;;;20.40;35.70;;;;;;482100;246;1063;-46
2021/12/28 10:26:41;;;;;;;;;;;20.40;35.90;;;;;;481829;246;1345;-46
2021/12/28 10:28:42;;;;;;;;;;;20.40;35.80;;;;;;482064;246;1262;-46
2021/12/28 10:30:43;;;;;;;;;;;20.40;35.80;;;;;;481952;246;1260;-46
2021/12/28 10:32:45;;;;;;;;;;;20.40;35.90;;;;;;481899;246;1165;-46
2021/12/28 10:34:46;;;;;;;;;;;20.30;35.80;;;;;;481993;246;1661;-47
2021/12/28 10:36:47;;;;;;;;;;;20.40;35.90;;;;;;481931;246;1300;-46
2021/12/28 10:38:49;;;;;;;;;;;20.40;35.90;;;;;;481994;246;1270;-46
2021/12/28 10:40:50;;;;;;;;;;;20.40;35.90;;;;;;482100;246;2133;-46
2021/12/28 10:42:52;;;;;;;;;;;20.40;35.80;;;;;;481956;246;1530;-47
2021/12/28 10:44:53;;;;;;;;;;;20.30;35.80;;;;;;482385;246;1079;-46
2021/12/28 10:46:54;;;;;;;;;;;20.30;35.80;;;;;;481851;246;1453;-46
2021/12/28 10:48:57;;;;;;;;;;;20.40;35.80;;;;;;481990;246;1187;-46
2021/12/28 10:51:00;;;;;;;;;;;20.30;35.80;;;;;;481958;246;2081;-46
2021/12/28 10:53:01;;;;;;;;;;;20.30;35.80;;;;;;481723;247;2059;-46
2021/12/28 10:54:59;;;;;;;;;;;20.30;35.80;;;;;;481893;247;2266;-46
2021/12/28 10:57:01;;;;;;;;;;;20.40;35.80;;;;;;482132;246;1335;-46
2021/12/28 10:59:02;;;;;;;;;;;20.30;35.80;;;;;;482238;246;1123;-46
2021/12/28 11:01:03;;;;;;;;;;;20.30;35.90;;;;;;481983;246;2129;-46
2021/12/28 11:03:05;;;;;;;;;;;20.30;35.90;;;;;;482095;246;1217;-46
2021/12/28 11:05:06;;;;;;;;;;;20.30;35.90;;;;;;481984;246;1250;-46
2021/12/28 11:07:08;;;;;;;;;;;20.30;35.90;;;;;;481852;246;1195;-46
2021/12/28 11:09:09;;;;;;;;;;;20.20;35.90;;;;;;481930;246;1496;-46
2021/12/28 11:11:11;;;;;;;;;;;20.30;35.90;;;;;;482017;246;1380;-46
2021/12/28 11:13:13;;;;;;;;;;;20.30;35.90;;;;;;482152;246;1518;-46
2021/12/28 11:15:14;;;;;;;;;;;20.30;35.90;;;;;;481959;246;1243;-46
2021/12/28 11:17:15;;;;;;;;;;;20.30;35.90;;;;;;481905;246;1247;-46
2021/12/28 11:19:17;;;;;;;;;;;20.30;35.80;;;;;;482034;246;1213;-46
2021/12/28 11:21:18;;;;;;;;;;;20.30;35.90;;;;;;481940;246;2196;-46
2021/12/28 11:23:19;;;;;;;;;;;20.30;36.00;;;;;;482081;246;1058;-46
2021/12/28 11:25:22;;;;;;;;;;;20.30;36.00;;;;;;482042;246;1153;-46
2021/12/28 11:27:22;;;;;;;;;;;20.30;36.00;;;;;;481892;247;2349;-46
2021/12/28 11:29:23;;;;;;;;;;;20.30;35.90;;;;;;482098;246;1087;-46
2021/12/28 11:31:25;;;;;;;;;;;20.20;35.90;;;;;;482093;246;1351;-46
2021/12/28 11:33:26;;;;;;;;;;;20.20;35.90;;;;;;482129;246;1100;-46
2021/12/28 11:35:27;;;;;;;;;;;20.30;36.00;;;;;;482081;246;1261;-46
2021/12/28 11:37:29;;;;;;;;;;;20.20;35.90;;;;;;481993;246;1231;-46
2021/12/28 11:39:30;;;;;;;;;;;20.20;36.00;;;;;;482019;246;1931;-46
2021/12/28 11:41:31;;;;;;;;;;;20.20;35.90;;;;;;482130;246;2118;-46
2021/12/28 11:43:32;;;;;;;;;;;20.20;35.90;;;;;;482197;246;1159;-46
2021/12/28 11:45:34;;;;;;;;;;;20.20;36.00;;;;;;482085;246;1061;-46
2021/12/28 11:47:35;;;;;;;;;;;20.20;36.10;;;;;;482130;246;1271;-46
2021/12/28 11:49:36;;;;;;;;;;;20.20;36.10;;;;;;482168;246;1237;-46
2021/12/28 11:51:38;;;;;;;;;;;20.20;36.10;;;;;;481992;246;1134;-46
2021/12/28 11:53:40;;;;;;;;;;;20.20;36.00;;;;;;482050;246;1052;-46
2021/12/28 11:55:41;;;;;;;;;;;20.20;36.00;;;;;;481951;246;1332;-46
2021/12/28 11:57:42;;;;;;;;;;;20.20;36.00;;;;;;481933;247;2169;-46